Time;durP1;ratioP1;P1;durP2;ratioP2;P2;SDS_P1;SDS_P2;PMS_P1;PMS_P2;Temp;Humidity;BMP_temperature;BMP_pressure;BME280_temperature;BME280_humidity;BME280_pressure;Samples;Min_cycle;Max_cycle;Signal;HPM_P1;HPM_P2
2023/06/25 00:02:07;;;;;;;57.33;2.90;;;;;;;;;;5054359;28;20532;-69
2023/06/25 00:04:34;;;;;;;57.60;2.90;;;;;;;;;;5054282;28;20472;-69
2023/06/25 00:07:01;;;;;;;57.40;2.97;;;;;;;;;;5054329;28;20944;-70
2023/06/25 00:09:29;;;;;;;57.80;2.83;;;;;;;;;;5053641;28;20452;-70
2023/06/25 00:11:56;;;;;;;57.27;2.43;;;;;;;;;;5054310;28;20852;-69
2023/06/25 00:14:23;;;;;;;57.27;2.50;;;;;;;;;;5054229;28;20491;-70
2023/06/25 00:16:57;;;;;;;58.07;2.97;;;;;;;;;;5053958;28;20444;-69
2023/06/25 00:19:25;;;;;;;57.03;2.30;;;;;;;;;;5053429;28;20937;-69
2023/06/25 00:21:52;;;;;;;56.87;2.07;;;;;;;;;;5054242;28;20480;-69
2023/06/25 00:24:19;;;;;;;56.90;2.30;;;;;;;;;;5054368;28;20494;-69
2023/06/25 00:26:47;;;;;;;57.10;2.50;;;;;;;;;;5054105;28;20487;-69
2023/06/25 00:29:14;;;;;;;57.00;2.67;;;;;;;;;;5053058;28;20813;-69
2023/06/25 00:31:42;;;;;;;56.90;2.50;;;;;;;;;;5054037;28;20459;-70
2023/06/25 00:34:09;;;;;;;57.60;2.60;;;;;;;;;;5053984;28;20487;-70
2023/06/25 00:36:40;;;;;;;56.97;2.50;;;;;;;;;;5053064;28;20455;-69
2023/06/25 00:39:07;;;;;;;57.40;2.70;;;;;;;;;;5052937;28;20521;-70
2023/06/25 00:41:35;;;;;;;57.40;3.07;;;;;;;;;;5053986;28;20531;-69
2023/06/25 00:44:06;;;;;;;57.60;3.23;;;;;;;;;;5053761;28;20491;-70
2023/06/25 00:46:33;;;;;;;56.87;2.20;;;;;;;;;;5053721;28;20504;-70
2023/06/25 00:49:05;;;;;;;56.73;2.30;;;;;;;;;;5052748;28;20997;-69
2023/06/25 00:51:34;;;;;;;57.50;3.23;;;;;;;;;;5053743;28;20778;-70
2023/06/25 00:54:05;;;;;;;57.07;2.30;;;;;;;;;;5053175;28;20575;-70
2023/06/25 00:56:32;;;;;;;57.03;2.77;;;;;;;;;;5053072;28;20500;-69
2023/06/25 00:59:01;;;;;;;57.37;2.60;;;;;;;;;;5052718;28;20455;-69
2023/06/25 01:01:32;;;;;;;57.27;2.53;;;;;;;;;;5053560;28;20448;-70
2023/06/25 01:04:03;;;;;;;57.37;2.40;;;;;;;;;;5053396;28;20468;-69
2023/06/25 01:06:33;;;;;;;57.47;2.50;;;;;;;;;;5053386;28;20432;-70
2023/06/25 01:09:00;;;;;;;57.80;2.80;;;;;;;;;;5053009;28;20890;-69
2023/06/25 01:11:28;;;;;;;58.47;3.17;;;;;;;;;;5053360;28;20448;-70
2023/06/25 01:13:55;;;;;;;56.93;2.33;;;;;;;;;;5053092;28;20488;-69
2023/06/25 01:16:22;;;;;;;57.20;2.40;;;;;;;;;;5053181;28;20455;-70
2023/06/25 01:19:04;;;;;;;56.97;2.30;;;;;;;;;;5052475;28;20448;-69
2023/06/25 01:21:33;;;;;;;57.27;2.80;;;;;;;;;;5009531;28;20965;-69
2023/06/25 01:24:01;;;;;;;57.17;2.60;;;;;;;;;;5010685;28;20468;-69
2023/06/25 01:26:29;;;;;;;58.27;2.70;;;;;;;;;;5010518;28;20450;-69
2023/06/25 01:28:56;;;;;;;57.27;2.63;;;;;;;;;;5010108;28;20453;-69
2023/06/25 01:31:25;;;;;;;57.50;2.53;;;;;;;;;;5010607;28;20450;-69
2023/06/25 01:33:52;;;;;;;57.40;2.90;;;;;;;;;;5010472;28;20566;-70
2023/06/25 01:36:19;;;;;;;57.10;2.40;;;;;;;;;;5010374;28;20988;-69
2023/06/25 01:38:46;;;;;;;56.77;2.23;;;;;;;;;;5009906;28;20453;-69
2023/06/25 01:41:15;;;;;;;57.33;2.47;;;;;;;;;;5010459;28;20446;-69
2023/06/25 01:43:42;;;;;;;57.03;2.23;;;;;;;;;;5010377;28;20478;-70
2023/06/25 01:49:13;;;;;;;57.27;3.10;;;;;;;;;;5000071;28;20437;-70
2023/06/25 01:51:40;;;;;;;57.30;2.80;;;;;;;;;;5018266;28;20753;-69
2023/06/25 01:54:07;;;;;;;56.97;2.40;;;;;;;;;;5045111;28;20873;-70
2023/06/25 01:56:35;;;;;;;57.70;2.87;;;;;;;;;;5032268;28;20783;-69
2023/06/25 01:59:02;;;;;;;57.13;2.50;;;;;;;;;;5039314;28;20464;-70
2023/06/25 02:01:30;;;;;;;57.40;2.60;;;;;;;;;;5052221;28;20449;-69
2023/06/25 02:03:57;;;;;;;58.07;4.10;;;;;;;;;;5046359;28;20461;-69
2023/06/25 02:06:24;;;;;;;59.00;3.47;;;;;;;;;;5038213;28;20448;-69
2023/06/25 02:08:51;;;;;;;57.30;2.70;;;;;;;;;;5046675;28;20449;-69
2023/06/25 02:11:18;;;;;;;56.97;2.60;;;;;;;;;;5032023;28;20446;-69
2023/06/25 02:13:47;;;;;;;57.20;2.50;;;;;;;;;;5032273;28;20493;-69
2023/06/25 02:16:14;;;;;;;57.40;3.03;;;;;;;;;;5032275;28;20441;-69
2023/06/25 02:18:41;;;;;;;58.33;2.70;;;;;;;;;;5031359;28;20449;-69
2023/06/25 02:21:09;;;;;;;57.23;2.43;;;;;;;;;;5032193;28;20449;-69
2023/06/25 02:23:36;;;;;;;57.00;2.30;;;;;;;;;;5031706;28;21000;-69
2023/06/25 02:26:03;;;;;;;57.30;2.40;;;;;;;;;;5031628;28;20814;-69
2023/06/25 02:28:30;;;;;;;57.03;2.60;;;;;;;;;;5031293;28;20456;-69
2023/06/25 02:30:58;;;;;;;57.17;2.20;;;;;;;;;;5031409;28;20954;-69
2023/06/25 02:33:25;;;;;;;58.90;2.77;;;;;;;;;;5031829;28;20580;-69
2023/06/25 02:35:53;;;;;;;57.07;2.53;;;;;;;;;;5031903;28;20460;-69
2023/06/25 02:38:20;;;;;;;58.40;4.00;;;;;;;;;;5031353;28;20974;-69
2023/06/25 02:40:47;;;;;;;57.17;2.40;;;;;;;;;;5031186;28;20453;-69
2023/06/25 02:43:14;;;;;;;57.07;2.70;;;;;;;;;;5031598;28;20476;-69
2023/06/25 02:45:41;;;;;;;57.17;2.60;;;;;;;;;;5031433;28;20449;-69
2023/06/25 02:48:09;;;;;;;57.17;2.37;;;;;;;;;;5031700;28;20827;-69
2023/06/25 02:50:36;;;;;;;58.03;2.80;;;;;;;;;;5030481;28;20528;-69
2023/06/25 02:53:03;;;;;;;57.17;2.40;;;;;;;;;;5031270;28;20865;-69
2023/06/25 02:55:31;;;;;;;56.97;2.30;;;;;;;;;;5031375;28;20469;-69
2023/06/25 02:57:58;;;;;;;57.37;3.13;;;;;;;;;;5031613;28;20449;-69
2023/06/25 03:00:25;;;;;;;58.57;2.43;;;;;;;;;;5030351;28;20452;-69
2023/06/25 03:02:52;;;;;;;57.17;2.30;;;;;;;;;;5031177;28;20454;-69
2023/06/25 03:05:20;;;;;;;59.70;3.13;;;;;;;;;;5031106;28;20454;-69
2023/06/25 03:07:51;;;;;;;56.93;2.53;;;;;;;;;;5031039;28;20453;-69
2023/06/25 03:10:18;;;;;;;57.50;3.13;;;;;;;;;;5030414;28;20457;-71
2023/06/25 03:12:45;;;;;;;56.73;2.10;;;;;;;;;;5031290;28;20449;-72
2023/06/25 03:15:12;;;;;;;57.17;2.30;;;;;;;;;;5031301;28;20495;-69
2023/06/25 03:17:39;;;;;;;57.47;3.20;;;;;;;;;;5031315;28;20457;-71
2023/06/25 03:20:07;;;;;;;57.17;2.37;;;;;;;;;;5030480;28;20461;-69
2023/06/25 03:22:36;;;;;;;57.60;2.50;;;;;;;;;;5031344;28;20658;-69
2023/06/25 03:25:03;;;;;;;57.07;2.60;;;;;;;;;;5030995;28;20476;-69
2023/06/25 03:27:30;;;;;;;57.90;3.00;;;;;;;;;;5031255;28;20938;-69
2023/06/25 03:29:57;;;;;;;57.07;2.47;;;;;;;;;;5030258;28;20528;-69
2023/06/25 03:32:24;;;;;;;57.30;2.67;;;;;;;;;;5030929;28;20456;-69
2023/06/25 03:34:51;;;;;;;58.87;2.60;;;;;;;;;;5030331;28;20489;-69
2023/06/25 03:37:18;;;;;;;57.10;2.43;;;;;;;;;;5031018;28;20452;-69
2023/06/25 03:39:46;;;;;;;57.47;2.80;;;;;;;;;;5030395;28;20453;-70
2023/06/25 03:42:13;;;;;;;58.00;3.53;;;;;;;;;;5030887;28;20460;-69
2023/06/25 03:44:43;;;;;;;57.00;2.33;;;;;;;;;;5030718;28;20982;-69
2023/06/25 03:47:10;;;;;;;57.07;2.50;;;;;;;;;;5032587;28;20460;-69
2023/06/25 03:49:37;;;;;;;59.30;2.80;;;;;;;;;;5049999;28;20460;-69
2023/06/25 03:52:05;;;;;;;57.30;2.77;;;;;;;;;;5050710;28;20452;-69
2023/06/25 03:54:32;;;;;;;57.40;2.50;;;;;;;;;;5040345;28;20485;-69
2023/06/25 03:57:00;;;;;;;57.17;2.50;;;;;;;;;;5030619;28;20461;-69
2023/06/25 03:59:28;;;;;;;57.17;2.47;;;;;;;;;;5030312;28;20468;-71
2023/06/25 04:01:55;;;;;;;57.30;2.70;;;;;;;;;;5030676;28;20457;-72
2023/06/25 04:04:22;;;;;;;57.90;3.13;;;;;;;;;;5030828;28;20465;-72
2023/06/25 04:06:49;;;;;;;57.17;2.37;;;;;;;;;;5030673;28;20457;-71
2023/06/25 04:09:16;;;;;;;56.87;2.30;;;;;;;;;;5029938;28;20460;-69
2023/06/25 04:11:43;;;;;;;57.27;2.87;;;;;;;;;;5032056;28;20962;-72
2023/06/25 04:14:11;;;;;;;56.97;2.17;;;;;;;;;;5033990;28;20495;-71
2023/06/25 04:16:39;;;;;;;57.40;2.40;;;;;;;;;;5034433;28;20456;-69
2023/06/25 04:19:06;;;;;;;57.20;2.37;;;;;;;;;;5033653;28;20976;-69
2023/06/25 04:21:35;;;;;;;57.67;2.93;;;;;;;;;;5034668;28;20456;-69
2023/06/25 04:24:02;;;;;;;56.93;2.50;;;;;;;;;;5052842;28;20464;-69
2023/06/25 04:26:29;;;;;;;57.07;2.40;;;;;;;;;;5053936;28;20984;-72
2023/06/25 04:28:56;;;;;;;56.93;2.50;;;;;;;;;;5053134;28;20980;-69
2023/06/25 04:31:24;;;;;;;57.10;2.40;;;;;;;;;;5054170;28;20448;-69
2023/06/25 04:33:52;;;;;;;57.30;2.77;;;;;;;;;;5053960;28;20491;-69
2023/06/25 04:36:19;;;;;;;57.30;2.53;;;;;;;;;;5053683;28;20531;-69
2023/06/25 04:38:47;;;;;;;57.40;2.70;;;;;;;;;;5053000;28;20507;-69
2023/06/25 04:41:14;;;;;;;57.80;3.43;;;;;;;;;;5053581;28;20957;-69
2023/06/25 04:43:41;;;;;;;57.10;2.63;;;;;;;;;;5053961;28;20491;-69
2023/06/25 04:46:08;;;;;;;57.00;2.40;;;;;;;;;;5053771;28;20451;-69
2023/06/25 04:48:36;;;;;;;57.00;2.40;;;;;;;;;;5052865;28;20456;-69
2023/06/25 04:51:04;;;;;;;57.10;2.60;;;;;;;;;;5053594;28;20448;-69
2023/06/25 04:53:31;;;;;;;56.73;2.20;;;;;;;;;;5053377;28;20479;-69
2023/06/25 04:55:58;;;;;;;57.30;2.60;;;;;;;;;;5052984;28;20452;-69
2023/06/25 04:58:25;;;;;;;56.93;2.40;;;;;;;;;;5053687;28;20514;-69
2023/06/25 05:00:52;;;;;;;57.03;2.27;;;;;;;;;;5053061;28;20440;-69
2023/06/25 05:03:20;;;;;;;56.97;2.13;;;;;;;;;;5053211;28;21017;-69
2023/06/25 05:05:48;;;;;;;57.40;2.40;;;;;;;;;;5053206;28;20448;-69
2023/06/25 05:08:15;;;;;;;57.00;2.47;;;;;;;;;;5053230;28;21146;-69
2023/06/25 05:10:43;;;;;;;56.87;2.37;;;;;;;;;;5052703;28;20829;-69
2023/06/25 05:13:10;;;;;;;56.90;2.60;;;;;;;;;;5053238;28;20468;-69
2023/06/25 05:15:41;;;;;;;56.90;2.90;;;;;;;;;;5052844;28;20488;-69
2023/06/25 05:18:08;;;;;;;56.67;2.27;;;;;;;;;;5053346;28;20447;-69
2023/06/25 05:20:36;;;;;;;56.70;2.10;;;;;;;;;;5052516;28;20458;-69
2023/06/25 05:23:05;;;;;;;57.80;2.47;;;;;;;;;;5052456;28;20448;-69
2023/06/25 05:25:35;;;;;;;57.00;2.60;;;;;;;;;;5053036;28;20456;-69
2023/06/25 05:28:03;;;;;;;56.80;2.30;;;;;;;;;;5053024;28;20452;-69
2023/06/25 05:30:30;;;;;;;56.87;2.37;;;;;;;;;;5052301;28;20452;-69
2023/06/25 05:32:57;;;;;;;57.07;2.40;;;;;;;;;;5052906;28;20452;-69
2023/06/25 05:35:26;;;;;;;56.90;2.43;;;;;;;;;;5052959;28;20492;-69
2023/06/25 05:37:53;;;;;;;56.90;2.20;;;;;;;;;;5052961;28;20505;-69
2023/06/25 05:40:22;;;;;;;56.87;2.20;;;;;;;;;;5052060;28;20459;-69
2023/06/25 05:42:49;;;;;;;57.77;2.93;;;;;;;;;;5052737;28;20455;-69
2023/06/25 05:45:16;;;;;;;56.87;2.87;;;;;;;;;;5052925;28;20820;-70
2023/06/25 05:47:43;;;;;;;56.87;2.50;;;;;;;;;;5049110;28;20453;-69
2023/06/25 05:50:11;;;;;;;57.97;2.50;;;;;;;;;;5048048;28;20452;-69
2023/06/25 05:52:38;;;;;;;56.83;2.30;;;;;;;;;;5049314;28;20442;-69
2023/06/25 05:55:05;;;;;;;57.77;2.77;;;;;;;;;;5032149;28;20491;-69
2023/06/25 05:57:34;;;;;;;57.03;2.60;;;;;;;;;;5032417;28;20453;-69
2023/06/25 06:00:01;;;;;;;56.97;3.23;;;;;;;;;;5031550;28;20460;-69
2023/06/25 06:02:28;;;;;;;56.77;2.37;;;;;;;;;;5032297;28;20449;-69
2023/06/25 06:04:55;;;;;;;57.17;2.87;;;;;;;;;;5032339;28;20465;-69
2023/06/25 06:07:22;;;;;;;56.67;2.30;;;;;;;;;;5032027;28;20460;-70
2023/06/25 06:09:49;;;;;;;57.10;2.57;;;;;;;;;;5031658;28;20449;-70
2023/06/25 06:12:16;;;;;;;57.07;2.50;;;;;;;;;;5051662;28;20448;-70
2023/06/25 06:14:45;;;;;;;57.10;2.40;;;;;;;;;;5051563;28;20488;-69
2023/06/25 06:17:12;;;;;;;56.90;2.60;;;;;;;;;;5046572;28;20937;-70
2023/06/25 06:19:39;;;;;;;56.90;2.30;;;;;;;;;;5051037;28;20448;-70
2023/06/25 06:22:06;;;;;;;57.20;2.63;;;;;;;;;;5051986;28;20452;-70
2023/06/25 06:24:33;;;;;;;56.93;2.87;;;;;;;;;;5051761;28;20469;-69
2023/06/25 06:27:01;;;;;;;56.90;2.37;;;;;;;;;;5051908;28;20451;-70
2023/06/25 06:29:28;;;;;;;56.97;2.20;;;;;;;;;;5051003;28;20448;-70
2023/06/25 06:31:56;;;;;;;58.43;3.43;;;;;;;;;;5051481;28;20457;-70
2023/06/25 06:34:23;;;;;;;57.97;2.67;;;;;;;;;;5051143;28;20488;-70
2023/06/25 06:36:50;;;;;;;57.13;2.47;;;;;;;;;;5050950;28;20448;-70
2023/06/25 06:39:18;;;;;;;57.30;2.70;;;;;;;;;;5050804;28;20444;-70
2023/06/25 06:41:45;;;;;;;57.07;3.07;;;;;;;;;;5051272;28;20452;-70
2023/06/25 06:44:13;;;;;;;57.60;2.80;;;;;;;;;;5051295;28;20464;-70
2023/06/25 06:46:40;;;;;;;56.97;2.23;;;;;;;;;;5051078;28;20451;-70
2023/06/25 06:49:09;;;;;;;56.80;2.20;;;;;;;;;;5050776;28;20444;-70
2023/06/25 06:51:36;;;;;;;57.40;3.07;;;;;;;;;;5050684;28;20437;-70
2023/06/25 06:54:04;;;;;;;56.83;2.13;;;;;;;;;;5051214;28;20460;-70
2023/06/25 06:56:31;;;;;;;57.07;2.53;;;;;;;;;;5050968;28;20848;-70
2023/06/25 06:58:58;;;;;;;58.20;2.77;;;;;;;;;;5050611;28;20448;-70
2023/06/25 07:01:25;;;;;;;58.10;3.30;;;;;;;;;;5051560;28;20447;-70
2023/06/25 07:03:52;;;;;;;57.57;2.93;;;;;;;;;;5051371;28;20478;-70
2023/06/25 07:06:21;;;;;;;57.77;3.33;;;;;;;;;;5051341;28;20448;-70
2023/06/25 07:08:48;;;;;;;57.20;2.60;;;;;;;;;;5050300;28;20448;-70
2023/06/25 07:11:18;;;;;;;57.10;2.80;;;;;;;;;;5051072;28;20920;-70
2023/06/25 07:13:45;;;;;;;56.67;2.57;;;;;;;;;;5051163;28;20551;-70
2023/06/25 07:16:12;;;;;;;57.47;2.87;;;;;;;;;;5050780;28;20490;-70
2023/06/25 07:18:39;;;;;;;57.67;3.07;;;;;;;;;;5050471;28;20456;-70
2023/06/25 07:21:07;;;;;;;56.80;2.10;;;;;;;;;;5051191;28;20452;-70
2023/06/25 07:23:36;;;;;;;57.20;2.87;;;;;;;;;;5051027;28;20488;-70
2023/06/25 07:26:04;;;;;;;62.10;2.73;;;;;;;;;;5051268;28;20436;-70
2023/06/25 07:28:31;;;;;;;58.90;3.03;;;;;;;;;;5050855;28;20455;-70
2023/06/25 07:30:58;;;;;;;57.67;3.10;;;;;;;;;;5050840;28;20464;-70
2023/06/25 07:33:25;;;;;;;57.53;2.40;;;;;;;;;;5050664;28;20472;-71
2023/06/25 07:35:52;;;;;;;57.40;3.30;;;;;;;;;;5050797;28;20488;-70
2023/06/25 07:38:19;;;;;;;57.40;2.80;;;;;;;;;;5050689;28;20451;-70
2023/06/25 07:40:48;;;;;;;57.17;2.30;;;;;;;;;;5050340;28;20462;-70
2023/06/25 07:43:15;;;;;;;57.40;2.67;;;;;;;;;;5050818;28;20479;-70
2023/06/25 07:45:42;;;;;;;57.30;2.50;;;;;;;;;;5050936;28;20448;-70
2023/06/25 07:48:09;;;;;;;57.40;2.77;;;;;;;;;;5052116;28;20548;-70
2023/06/25 07:50:36;;;;;;;56.90;2.50;;;;;;;;;;5053426;28;20455;-70
2023/06/25 07:53:03;;;;;;;57.50;3.13;;;;;;;;;;5054353;28;20770;-70
2023/06/25 07:55:38;;;;;;;57.83;2.50;;;;;;;;;;5035857;28;21040;-70
2023/06/25 07:58:06;;;;;;;56.70;2.73;;;;;;;;;;5034613;28;20957;-70
2023/06/25 08:00:33;;;;;;;56.80;3.03;;;;;;;;;;5033726;28;20515;-71
2023/06/25 08:03:01;;;;;;;57.00;2.63;;;;;;;;;;5034480;28;20472;-71
2023/06/25 08:05:28;;;;;;;56.90;2.40;;;;;;;;;;5034288;28;20479;-70
2023/06/25 08:07:56;;;;;;;57.70;2.57;;;;;;;;;;5034770;28;20440;-70
2023/06/25 08:10:23;;;;;;;58.10;2.80;;;;;;;;;;5035120;28;20457;-71
2023/06/25 08:12:50;;;;;;;56.93;2.53;;;;;;;;;;5047365;28;20494;-70
2023/06/25 08:15:20;;;;;;;57.00;2.70;;;;;;;;;;5037658;28;20489;-70
2023/06/25 08:17:47;;;;;;;57.70;4.20;;;;;;;;;;5034533;28;20460;-70
2023/06/25 08:20:14;;;;;;;58.90;2.97;;;;;;;;;;5033705;28;20461;-70
2023/06/25 08:22:41;;;;;;;57.10;3.20;;;;;;;;;;5033936;28;20976;-70
2023/06/25 08:25:19;;;;;;;57.77;3.23;;;;;;;;;;5034343;28;20558;-70
2023/06/25 08:27:46;;;;;;;57.77;3.20;;;;;;;;;;5034244;28;20483;-70
2023/06/25 08:30:14;;;;;;;56.90;2.63;;;;;;;;;;5033610;28;20453;-71
2023/06/25 08:32:42;;;;;;;56.67;3.00;;;;;;;;;;5034055;28;20453;-70
2023/06/25 08:35:09;;;;;;;56.90;2.80;;;;;;;;;;5033742;28;21023;-71
2023/06/25 08:37:36;;;;;;;56.37;2.00;;;;;;;;;;5033995;28;20452;-71
2023/06/25 08:40:04;;;;;;;56.63;2.17;;;;;;;;;;5033155;28;20445;-70
2023/06/25 08:42:31;;;;;;;56.90;2.20;;;;;;;;;;5034130;28;20467;-70
2023/06/25 08:44:58;;;;;;;56.60;1.90;;;;;;;;;;5033660;28;20488;-70
2023/06/25 08:47:27;;;;;;;57.47;3.00;;;;;;;;;;5033877;28;20461;-71
2023/06/25 08:49:55;;;;;;;57.77;2.60;;;;;;;;;;5033015;28;20453;-71
2023/06/25 08:52:24;;;;;;;57.67;2.43;;;;;;;;;;5033675;28;20964;-70
2023/06/25 08:54:52;;;;;;;56.47;2.00;;;;;;;;;;5033301;28;21023;-69
2023/06/25 08:57:19;;;;;;;56.93;2.33;;;;;;;;;;5033131;28;20468;-69
2023/06/25 08:59:46;;;;;;;56.67;2.97;;;;;;;;;;5032233;28;20448;-69
2023/06/25 09:02:13;;;;;;;58.57;2.50;;;;;;;;;;5044815;28;20471;-69
2023/06/25 09:04:40;;;;;;;58.20;3.50;;;;;;;;;;5053195;28;20996;-70
2023/06/25 09:07:09;;;;;;;57.20;3.00;;;;;;;;;;5053072;28;20467;-69
2023/06/25 09:09:36;;;;;;;56.73;2.50;;;;;;;;;;5052512;28;20444;-70
2023/06/25 09:12:04;;;;;;;56.90;2.30;;;;;;;;;;5053242;28;20444;-70
2023/06/25 09:14:31;;;;;;;56.57;2.53;;;;;;;;;;5053104;28;20472;-70
2023/06/25 09:16:58;;;;;;;56.70;2.47;;;;;;;;;;5053203;28;20487;-70
2023/06/25 09:19:25;;;;;;;56.77;2.63;;;;;;;;;;5052507;28;20452;-70
2023/06/25 09:21:52;;;;;;;57.67;2.10;;;;;;;;;;5052602;28;20451;-69
2023/06/25 09:24:22;;;;;;;57.77;3.10;;;;;;;;;;5052770;28;20475;-69
2023/06/25 09:26:49;;;;;;;57.47;2.80;;;;;;;;;;5052589;28;20451;-69
2023/06/25 09:29:17;;;;;;;56.90;2.20;;;;;;;;;;5051948;28;20448;-69
2023/06/25 09:31:44;;;;;;;56.23;1.97;;;;;;;;;;5052671;28;20468;-70
2023/06/25 09:34:12;;;;;;;58.30;2.93;;;;;;;;;;5052865;28;20472;-70
2023/06/25 09:36:39;;;;;;;56.30;1.90;;;;;;;;;;5052824;28;20480;-70
2023/06/25 09:39:07;;;;;;;56.57;2.83;;;;;;;;;;5051996;28;20460;-69
2023/06/25 09:41:36;;;;;;;56.70;2.30;;;;;;;;;;5052837;28;20505;-70
2023/06/25 09:44:04;;;;;;;56.50;1.97;;;;;;;;;;5052800;28;20464;-69
2023/06/25 09:46:34;;;;;;;56.50;1.97;;;;;;;;;;5052790;28;20425;-69
2023/06/25 09:49:02;;;;;;;56.73;2.00;;;;;;;;;;5052070;28;20867;-69
2023/06/25 09:51:31;;;;;;;56.47;2.03;;;;;;;;;;5052526;28;20916;-70
2023/06/25 09:54:00;;;;;;;56.40;2.57;;;;;;;;;;5052149;28;20475;-69
2023/06/25 09:56:28;;;;;;;56.50;1.80;;;;;;;;;;5052149;28;20493;-69
2023/06/25 09:58:56;;;;;;;56.70;2.30;;;;;;;;;;5051729;28;20452;-69
2023/06/25 10:01:23;;;;;;;56.70;2.37;;;;;;;;;;5052180;28;20956;-70
2023/06/25 10:03:51;;;;;;;57.07;3.20;;;;;;;;;;5052138;28;20475;-69
2023/06/25 10:06:18;;;;;;;56.97;2.47;;;;;;;;;;5051919;28;20444;-69
2023/06/25 10:08:45;;;;;;;56.27;2.20;;;;;;;;;;5051937;28;20463;-69
2023/06/25 10:11:15;;;;;;;56.87;2.87;;;;;;;;;;5052634;28;20448;-70
2023/06/25 10:13:44;;;;;;;56.30;1.93;;;;;;;;;;5051965;28;20475;-69
2023/06/25 10:16:17;;;;;;;56.47;1.80;;;;;;;;;;5051741;28;20488;-70
2023/06/25 10:18:44;;;;;;;56.70;2.20;;;;;;;;;;5051768;28;20437;-69
2023/06/25 10:21:18;;;;;;;56.27;2.40;;;;;;;;;;5052106;28;20821;-70
2023/06/25 10:23:53;;;;;;;56.50;2.13;;;;;;;;;;5052087;28;20482;-69
2023/06/25 10:26:20;;;;;;;56.63;2.23;;;;;;;;;;5052024;28;20481;-70
2023/06/25 10:28:52;;;;;;;56.33;2.20;;;;;;;;;;5050969;28;20944;-69
2023/06/25 10:31:20;;;;;;;56.83;2.17;;;;;;;;;;5052131;28;20452;-70
2023/06/25 10:33:47;;;;;;;55.87;2.20;;;;;;;;;;5051798;28;20472;-70
2023/06/25 10:36:15;;;;;;;55.80;2.00;;;;;;;;;;5051621;28;20519;-70
2023/06/25 10:38:42;;;;;;;57.13;2.87;;;;;;;;;;5050883;28;20509;-69
2023/06/25 10:41:09;;;;;;;55.70;1.80;;;;;;;;;;5051505;28;20544;-70
2023/06/25 10:43:38;;;;;;;56.27;2.70;;;;;;;;;;5051364;28;20468;-70
2023/06/25 10:46:05;;;;;;;56.07;2.30;;;;;;;;;;5051230;28;20510;-70
2023/06/25 10:48:34;;;;;;;55.50;2.10;;;;;;;;;;5050943;28;20460;-70
2023/06/25 10:51:01;;;;;;;55.70;1.93;;;;;;;;;;5051724;28;20946;-70
2023/06/25 10:53:28;;;;;;;56.13;3.13;;;;;;;;;;5048888;28;20487;-70
2023/06/25 10:55:56;;;;;;;55.20;1.70;;;;;;;;;;5050998;28;20523;-70
2023/06/25 10:58:23;;;;;;;55.27;1.87;;;;;;;;;;5050732;28;20460;-70
2023/06/25 11:00:54;;;;;;;55.13;2.00;;;;;;;;;;5037713;28;20460;-70
2023/06/25 11:03:21;;;;;;;56.07;2.67;;;;;;;;;;5031630;28;20481;-70
2023/06/25 11:05:50;;;;;;;55.40;2.17;;;;;;;;;;5031329;28;20459;-70
2023/06/25 11:08:17;;;;;;;55.97;2.23;;;;;;;;;;5031438;28;20456;-70
2023/06/25 11:10:45;;;;;;;55.30;2.17;;;;;;;;;;5034257;28;20452;-71
2023/06/25 11:13:12;;;;;;;56.00;2.37;;;;;;;;;;5049986;28;20484;-70
2023/06/25 11:15:40;;;;;;;55.60;2.30;;;;;;;;;;5039550;28;20480;-70
2023/06/25 11:18:08;;;;;;;55.47;2.53;;;;;;;;;;5046437;28;20645;-70
2023/06/25 11:20:35;;;;;;;55.50;2.30;;;;;;;;;;5030879;28;20459;-71
2023/06/25 11:23:04;;;;;;;55.43;2.20;;;;;;;;;;5031047;28;20457;-70
2023/06/25 11:25:31;;;;;;;56.17;3.10;;;;;;;;;;5031389;28;20460;-70
2023/06/25 11:28:02;;;;;;;55.20;1.87;;;;;;;;;;5031236;28;20456;-70
2023/06/25 11:30:30;;;;;;;55.10;2.17;;;;;;;;;;5032593;28;20444;-70
2023/06/25 11:33:07;;;;;;;55.27;1.80;;;;;;;;;;5045201;28;21008;-70
2023/06/25 11:35:34;;;;;;;55.10;2.00;;;;;;;;;;5031123;28;20433;-70
2023/06/25 11:38:03;;;;;;;55.27;1.97;;;;;;;;;;5030792;28;20979;-70
2023/06/25 11:40:31;;;;;;;55.80;2.40;;;;;;;;;;5049214;28;20440;-70
2023/06/25 11:42:58;;;;;;;55.60;2.33;;;;;;;;;;5050283;28;20444;-70
2023/06/25 11:45:25;;;;;;;55.80;3.10;;;;;;;;;;5050809;28;20523;-71
2023/06/25 11:47:53;;;;;;;55.17;2.10;;;;;;;;;;5050979;28;20448;-71
2023/06/25 11:50:22;;;;;;;54.93;1.93;;;;;;;;;;5049958;28;20535;-71
2023/06/25 11:52:49;;;;;;;54.93;2.17;;;;;;;;;;5050669;28;20452;-71
2023/06/25 11:55:18;;;;;;;55.73;2.40;;;;;;;;;;5050782;28;20455;-71
2023/06/25 11:57:46;;;;;;;56.07;2.70;;;;;;;;;;5050805;28;20468;-71
2023/06/25 12:00:13;;;;;;;55.60;2.60;;;;;;;;;;5049942;28;20452;-71
2023/06/25 12:02:40;;;;;;;55.57;2.07;;;;;;;;;;5050793;28;20535;-71
2023/06/25 12:05:08;;;;;;;56.20;2.93;;;;;;;;;;5050370;28;20996;-71
2023/06/25 12:07:35;;;;;;;55.27;2.03;;;;;;;;;;5050653;28;20514;-71
2023/06/25 12:10:02;;;;;;;55.37;2.20;;;;;;;;;;5049996;28;20452;-71
2023/06/25 12:12:31;;;;;;;55.40;2.40;;;;;;;;;;5050677;28;20814;-71
2023/06/25 12:14:58;;;;;;;55.60;2.67;;;;;;;;;;5050671;28;20471;-71
2023/06/25 12:17:25;;;;;;;55.73;2.43;;;;;;;;;;5050258;28;20483;-71
2023/06/25 12:19:52;;;;;;;55.17;1.90;;;;;;;;;;5049684;28;20450;-71
2023/06/25 12:22:19;;;;;;;55.30;2.83;;;;;;;;;;5050668;28;20448;-71
2023/06/25 12:24:46;;;;;;;55.40;2.20;;;;;;;;;;5050439;28;20476;-71
2023/06/25 12:27:13;;;;;;;55.27;2.40;;;;;;;;;;5050358;28;20458;-71
2023/06/25 12:29:42;;;;;;;55.40;2.10;;;;;;;;;;5049745;28;20526;-71
2023/06/25 12:32:09;;;;;;;55.43;2.10;;;;;;;;;;5050799;28;20455;-71
2023/06/25 12:34:36;;;;;;;55.20;2.60;;;;;;;;;;5053458;28;20464;-71
2023/06/25 12:37:03;;;;;;;56.07;2.40;;;;;;;;;;5053888;28;20492;-71
2023/06/25 12:39:30;;;;;;;54.80;1.90;;;;;;;;;;5053457;28;20443;-71
2023/06/25 12:41:57;;;;;;;55.60;2.63;;;;;;;;;;5054127;28;20456;-71
2023/06/25 12:44:24;;;;;;;55.40;2.63;;;;;;;;;;5053626;28;20472;-71
2023/06/25 12:46:53;;;;;;;56.27;2.30;;;;;;;;;;5053493;28;20448;-71
2023/06/25 12:49:20;;;;;;;55.93;2.83;;;;;;;;;;5053278;28;20570;-70
2023/06/25 12:51:47;;;;;;;55.07;1.93;;;;;;;;;;5053592;28;20448;-71
2023/06/25 12:54:14;;;;;;;56.37;2.60;;;;;;;;;;5051875;28;20476;-71
2023/06/25 12:56:41;;;;;;;56.27;2.00;;;;;;;;;;5052976;28;20493;-71
2023/06/25 12:59:08;;;;;;;56.23;2.50;;;;;;;;;;5045525;28;20459;-70
2023/06/25 13:01:35;;;;;;;55.90;2.60;;;;;;;;;;5034017;28;20453;-71
2023/06/25 13:04:04;;;;;;;55.20;2.00;;;;;;;;;;5033657;28;20469;-71
2023/06/25 13:06:31;;;;;;;55.90;2.47;;;;;;;;;;5036203;28;20443;-70
2023/06/25 13:08:58;;;;;;;55.30;1.83;;;;;;;;;;5047022;28;20475;-71
2023/06/25 13:11:25;;;;;;;55.50;2.13;;;;;;;;;;5033399;28;20449;-71
2023/06/25 13:13:52;;;;;;;55.20;2.20;;;;;;;;;;5033249;28;20469;-71
2023/06/25 13:16:19;;;;;;;55.30;2.43;;;;;;;;;;5033353;28;20482;-71
2023/06/25 13:18:46;;;;;;;55.13;1.90;;;;;;;;;;5032757;28;20460;-71
2023/06/25 13:21:15;;;;;;;55.27;2.50;;;;;;;;;;5033379;28;20465;-71
2023/06/25 13:23:42;;;;;;;55.57;2.40;;;;;;;;;;5033043;28;20492;-71
2023/06/25 13:26:09;;;;;;;55.07;1.90;;;;;;;;;;5049376;28;20550;-71
2023/06/25 13:28:37;;;;;;;55.20;2.13;;;;;;;;;;5033085;28;20452;-71
2023/06/25 13:31:04;;;;;;;55.30;2.93;;;;;;;;;;5033183;28;20437;-71
2023/06/25 13:33:31;;;;;;;54.87;2.30;;;;;;;;;;5033001;28;20473;-71
2023/06/25 13:35:58;;;;;;;56.00;2.53;;;;;;;;;;5032716;28;20450;-71
2023/06/25 13:38:26;;;;;;;54.80;1.87;;;;;;;;;;5032757;28;20449;-71
2023/06/25 13:40:53;;;;;;;55.27;2.47;;;;;;;;;;5032272;28;20449;-71
2023/06/25 13:43:21;;;;;;;55.27;2.00;;;;;;;;;;5032765;28;20475;-71
2023/06/25 13:45:48;;;;;;;55.60;2.30;;;;;;;;;;5031967;28;20453;-71
2023/06/25 13:48:15;;;;;;;54.93;1.70;;;;;;;;;;5032822;28;20556;-71
2023/06/25 13:50:42;;;;;;;56.70;3.17;;;;;;;;;;5031914;28;20453;-71
2023/06/25 13:53:09;;;;;;;54.33;2.53;;;;;;;;;;5032662;28;20839;-71
2023/06/25 13:55:37;;;;;;;54.17;2.47;;;;;;;;;;5032278;28;20461;-71
2023/06/25 13:58:04;;;;;;;55.50;2.60;;;;;;;;;;5032355;28;20458;-71
2023/06/25 14:00:32;;;;;;;55.80;2.90;;;;;;;;;;5031913;28;20855;-71
2023/06/25 14:03:01;;;;;;;55.00;2.13;;;;;;;;;;5032566;28;20449;-71
2023/06/25 14:05:28;;;;;;;54.97;1.87;;;;;;;;;;5032201;28;20489;-71
2023/06/25 14:07:56;;;;;;;55.27;2.60;;;;;;;;;;5032032;28;20481;-71
2023/06/25 14:10:23;;;;;;;55.10;2.07;;;;;;;;;;5031746;28;20460;-71
2023/06/25 14:12:52;;;;;;;55.13;2.40;;;;;;;;;;5032075;28;20449;-71
2023/06/25 14:15:19;;;;;;;57.70;3.33;;;;;;;;;;5032175;28;20460;-71
2023/06/25 14:17:46;;;;;;;54.40;1.90;;;;;;;;;;5032039;28;20969;-71
2023/06/25 14:20:13;;;;;;;55.53;2.63;;;;;;;;;;5031654;28;20445;-71
2023/06/25 14:22:40;;;;;;;55.00;2.07;;;;;;;;;;5032156;28;20444;-71
2023/06/25 14:25:07;;;;;;;55.10;2.50;;;;;;;;;;5031849;28;20480;-71
2023/06/25 14:27:34;;;;;;;55.27;2.23;;;;;;;;;;5031971;28;20485;-71
2023/06/25 14:30:03;;;;;;;56.37;2.40;;;;;;;;;;5031461;28;20449;-71
2023/06/25 14:32:31;;;;;;;56.90;2.37;;;;;;;;;;5031805;28;20457;-71
2023/06/25 14:34:58;;;;;;;55.80;2.90;;;;;;;;;;5031991;28;20899;-71
2023/06/25 14:37:25;;;;;;;54.80;1.70;;;;;;;;;;5031724;28;20445;-71